Time;durP1;ratioP1;P1;durP2;ratioP2;P2;SDS_P1;SDS_P2;PMS_P1;PMS_P2;Temp;Humidity;BMP_temperature;BMP_pressure;BME280_temperature;BME280_humidity;BME280_pressure;Samples;Min_cycle;Max_cycle;Signal;HPM_P1;HPM_P2
2022/06/03 00:00:33;;;;;;;3.27;2.73;;;16.10;99.90;;;;;;5092570;28;20595;-73
2022/06/03 00:03:12;;;;;;;2.70;2.60;;;15.90;99.90;;;;;;5094575;28;20570;-74
2022/06/03 00:05:52;;;;;;;3.40;2.20;;;15.90;99.90;;;;;;5093048;28;20931;-74
2022/06/03 00:08:52;;;;;;;4.13;2.13;;;15.90;99.90;;;;;;5094351;28;20669;-74
2022/06/03 00:11:40;;;;;;;3.20;2.73;;;15.80;99.90;;;;;;5094842;28;21214;-74
2022/06/03 00:14:28;;;;;;;4.20;2.53;;;15.80;99.90;;;;;;5095559;28;20570;-74
2022/06/03 00:17:11;;;;;;;2.37;2.27;;;15.70;99.90;;;;;;5093851;28;20565;-74
2022/06/03 00:20:18;;;;;;;4.90;2.40;;;15.70;99.90;;;;;;5093900;28;20603;-74
2022/06/03 00:23:22;;;;;;;3.97;2.47;;;15.70;99.90;;;;;;5062968;28;20640;-74
2022/06/03 00:26:06;;;;;;;2.47;2.10;;;15.60;99.90;;;;;;5093274;28;20597;-74
2022/06/03 00:28:47;;;;;;;2.27;2.17;;;15.60;99.90;;;;;;5093379;28;21124;-74
2022/06/03 00:31:20;;;;;;;2.30;1.90;;;15.50;99.90;;;;;;5094463;28;20556;-74
2022/06/03 00:34:08;;;;;;;1.93;1.83;;;15.50;99.90;;;;;;5094354;28;20574;-73
2022/06/03 00:36:57;;;;;;;2.63;2.17;;;15.50;99.90;;;;;;5094276;28;20584;-74
2022/06/03 00:39:40;;;;;;;2.03;1.80;;;15.50;99.90;;;;;;5094596;28;20662;-74
2022/06/03 00:42:42;;;;;;;2.30;2.20;;;15.50;99.90;;;;;;5093669;28;20574;-74
2022/06/03 00:45:15;;;;;;;2.43;2.33;;;15.40;99.90;;;;;;5096285;28;20614;-74
2022/06/03 00:48:02;;;;;;;2.67;2.47;;;15.40;99.90;;;;;;5098406;28;20649;-74
2022/06/03 00:50:56;;;;;;;3.53;1.90;;;15.30;99.90;;;;;;5098456;28;20580;-74
2022/06/03 00:54:06;;;;;;;2.73;2.50;;;15.30;99.90;;;;;;5097388;28;20942;-74
2022/06/03 00:56:35;;;;;;;2.30;2.10;;;15.30;99.90;;;;;;5097296;28;20617;-74
2022/06/03 00:59:07;;;;;;;5.00;2.30;;;15.20;99.90;;;;;;5097349;28;20632;-74
2022/06/03 01:01:48;;;;;;;2.07;1.97;;;15.20;99.90;;;;;;5096717;28;20666;-74
2022/06/03 01:04:52;;;;;;;2.30;2.20;;;15.20;99.90;;;;;;5097502;28;20573;-74
2022/06/03 01:07:29;;;;;;;3.00;2.20;;;15.20;99.90;;;;;;5097658;28;21181;-74
2022/06/03 01:10:16;;;;;;;2.07;1.87;;;15.20;99.90;;;;;;5097468;28;20573;-74
2022/06/03 01:13:28;;;;;;;1.93;1.83;;;15.20;99.90;;;;;;5097508;28;20985;-74
2022/06/03 01:16:12;;;;;;;2.00;1.90;;;15.10;99.90;;;;;;5054581;28;20641;-74
2022/06/03 01:18:55;;;;;;;1.67;1.57;;;15.10;99.90;;;;;;5054424;28;20742;-74
2022/06/03 01:21:59;;;;;;;2.07;1.87;;;15.10;99.90;;;;;;5086876;28;20624;-74
2022/06/03 01:25:04;;;;;;;2.13;2.03;;;15.10;99.90;;;;;;5097129;28;20604;-74
2022/06/03 01:28:19;;;;;;;3.43;2.17;;;15.00;99.90;;;;;;5098341;28;20579;-74
2022/06/03 01:31:00;;;;;;;1.50;1.40;;;15.10;99.90;;;;;;5094605;28;20702;-74
2022/06/03 01:33:32;;;;;;;2.13;1.90;;;15.00;99.90;;;;;;5098467;28;20574;-74
2022/06/03 01:36:14;;;;;;;2.60;1.97;;;15.00;99.90;;;;;;5098851;28;20634;-74
2022/06/03 01:38:55;;;;;;;2.47;2.27;;;15.00;99.90;;;;;;5097974;28;21267;-73
2022/06/03 01:41:41;;;;;;;3.43;1.80;;;15.00;99.90;;;;;;5098118;28;20578;-74
2022/06/03 01:44:30;;;;;;;3.13;1.70;;;14.90;99.90;;;;;;5096324;28;20613;-74
2022/06/03 01:47:25;;;;;;;3.73;2.13;;;14.90;99.90;;;;;;5097289;28;21109;-74
2022/06/03 01:49:58;;;;;;;3.00;2.10;;;14.90;99.90;;;;;;5098118;28;20578;-74
2022/06/03 01:53:08;;;;;;;2.30;2.20;;;14.90;99.90;;;;;;5097914;28;20937;-75
2022/06/03 01:56:13;;;;;;;1.97;1.87;;;14.80;99.90;;;;;;5088165;28;20630;-75
2022/06/03 01:59:17;;;;;;;2.57;2.37;;;14.80;99.90;;;;;;5097504;28;20637;-75
2022/06/03 02:02:16;;;;;;;4.40;2.20;;;14.80;99.90;;;;;;5097279;28;20604;-75
2022/06/03 02:04:54;;;;;;;3.73;2.47;;;14.80;99.90;;;;;;5096735;28;20574;-75
2022/06/03 02:07:54;;;;;;;2.60;2.37;;;14.80;99.90;;;;;;5096981;28;20597;-75
2022/06/03 02:10:53;;;;;;;2.07;1.87;;;14.70;99.90;;;;;;5095291;28;20612;-75
2022/06/03 02:13:38;;;;;;;3.00;1.90;;;14.70;99.90;;;;;;5096637;28;20945;-75
2022/06/03 02:16:39;;;;;;;2.70;1.77;;;14.80;99.90;;;;;;5096691;28;20601;-74
2022/06/03 02:19:24;;;;;;;3.00;2.00;;;14.70;99.90;;;;;;5096686;28;20624;-74
2022/06/03 02:22:09;;;;;;;3.70;3.03;;;14.60;99.90;;;;;;5096029;28;20917;-74
2022/06/03 02:25:09;;;;;;;2.30;2.20;;;14.50;99.90;;;;;;5095826;28;20591;-74
2022/06/03 02:28:12;;;;;;;4.63;1.87;;;14.50;99.90;;;;;;5097657;28;20570;-74
2022/06/03 02:31:07;;;;;;;2.43;1.80;;;14.50;99.90;;;;;;5097076;28;20620;-75
2022/06/03 02:33:39;;;;;;;2.20;2.00;;;14.50;99.90;;;;;;5098088;28;20639;-74
2022/06/03 02:36:11;;;;;;;2.70;1.80;;;14.50;99.90;;;;;;5097898;28;20612;-74
2022/06/03 02:39:12;;;;;;;2.90;1.77;;;14.50;99.90;;;;;;5097468;28;20715;-74
2022/06/03 02:41:53;;;;;;;2.33;1.83;;;14.40;99.90;;;;;;5079324;28;20617;-74
2022/06/03 02:44:44;;;;;;;3.50;2.00;;;14.40;99.90;;;;;;5095924;28;20574;-75
2022/06/03 02:47:38;;;;;;;4.30;1.73;;;14.40;99.90;;;;;;5095054;28;21187;-74
2022/06/03 02:50:29;;;;;;;2.07;1.90;;;14.40;99.90;;;;;;5095227;28;21212;-74
2022/06/03 02:53:14;;;;;;;1.93;1.83;;;14.40;99.90;;;;;;5095477;28;20574;-74
2022/06/03 02:55:47;;;;;;;1.70;1.60;;;14.30;99.90;;;;;;5095275;28;20577;-74
2022/06/03 02:58:45;;;;;;;2.03;1.80;;;14.30;99.90;;;;;;5095455;28;20624;-74
2022/06/03 03:01:35;;;;;;;1.97;1.87;;;14.30;99.90;;;;;;5095286;28;20580;-74
2022/06/03 03:04:08;;;;;;;2.17;2.03;;;14.20;99.90;;;;;;5093833;28;20985;-75
2022/06/03 03:07:02;;;;;;;2.20;1.90;;;14.30;99.90;;;;;;5095194;28;20620;-74
2022/06/03 03:09:37;;;;;;;1.83;1.73;;;14.20;99.90;;;;;;5093547;28;20646;-74
2022/06/03 03:12:17;;;;;;;1.83;1.73;;;14.20;99.90;;;;;;5095114;28;20570;-74
2022/06/03 03:15:06;;;;;;;3.40;2.80;;;14.10;99.90;;;;;;5095479;28;20632;-74
2022/06/03 03:17:56;;;;;;;2.30;1.70;;;14.20;99.90;;;;;;5094922;28;20598;-74
2022/06/03 03:20:29;;;;;;;2.03;1.90;;;14.20;99.90;;;;;;5094815;28;20629;-75
2022/06/03 03:23:08;;;;;;;1.83;1.73;;;14.10;99.90;;;;;;5094805;28;20617;-74
2022/06/03 03:25:44;;;;;;;4.73;1.80;;;14.10;99.90;;;;;;5094630;28;20573;-74
2022/06/03 03:28:38;;;;;;;2.17;2.00;;;14.10;99.90;;;;;;5094764;28;20577;-74
2022/06/03 03:31:08;;;;;;;3.93;2.00;;;14.00;99.90;;;;;;5095256;28;20609;-74
2022/06/03 03:34:04;;;;;;;3.70;1.83;;;14.00;99.90;;;;;;5094992;28;20720;-74
2022/06/03 03:37:04;;;;;;;2.00;1.90;;;14.00;99.90;;;;;;5093971;28;20640;-74
2022/06/03 03:39:42;;;;;;;2.60;1.97;;;14.00;99.90;;;;;;5094592;28;20633;-74
2022/06/03 03:42:46;;;;;;;7.47;2.00;;;14.20;99.90;;;;;;5094440;28;20617;-74
2022/06/03 03:45:36;;;;;;;3.73;2.70;;;14.20;99.90;;;;;;5093941;28;21165;-74
2022/06/03 03:48:33;;;;;;;1.87;1.77;;;14.20;99.90;;;;;;5094028;28;20721;-74
2022/06/03 03:51:21;;;;;;;2.13;2.00;;;14.20;99.90;;;;;;5093027;28;21182;-74
2022/06/03 03:54:06;;;;;;;2.10;2.00;;;14.20;99.90;;;;;;5096240;28;20963;-74
2022/06/03 03:56:50;;;;;;;2.47;2.27;;;14.20;99.90;;;;;;5095967;28;21112;-74
2022/06/03 03:59:47;;;;;;;3.10;2.90;;;14.20;99.90;;;;;;5096145;28;20678;-74
2022/06/03 04:02:52;;;;;;;2.70;2.47;;;14.20;99.90;;;;;;5096488;28;20574;-74
2022/06/03 04:05:31;;;;;;;2.10;2.00;;;14.30;99.90;;;;;;5096144;28;20725;-74
2022/06/03 04:08:16;;;;;;;3.13;1.90;;;14.30;99.90;;;;;;5095685;28;21118;-74
2022/06/03 04:10:55;;;;;;;2.17;2.07;;;14.20;99.90;;;;;;5095014;28;20566;-74
2022/06/03 04:13:40;;;;;;;2.00;1.90;;;14.30;99.90;;;;;;5094452;28;20577;-74
2022/06/03 04:16:28;;;;;;;3.93;2.17;;;14.40;99.90;;;;;;5093526;28;20629;-74
2022/06/03 04:19:28;;;;;;;2.90;2.00;;;14.30;99.90;;;;;;5093345;28;20660;-74
2022/06/03 04:22:13;;;;;;;2.17;2.07;;;14.30;99.90;;;;;;5072320;28;20721;-74
2022/06/03 04:25:05;;;;;;;2.67;1.97;;;14.30;99.90;;;;;;5094188;28;20589;-74
2022/06/03 04:27:50;;;;;;;2.43;2.23;;;14.30;99.90;;;;;;5094041;28;20570;-74
2022/06/03 04:30:38;;;;;;;2.50;1.90;;;14.20;99.90;;;;;;5094612;28;20585;-74
2022/06/03 04:33:26;;;;;;;4.43;2.27;;;14.30;99.90;;;;;;5094103;28;20973;-74
2022/06/03 04:35:59;;;;;;;2.17;2.07;;;14.30;99.90;;;;;;5094231;28;20580;-74
2022/06/03 04:39:13;;;;;;;18.50;2.13;;;14.40;99.90;;;;;;5094088;28;21022;-74
2022/06/03 04:42:17;;;;;;;2.27;2.10;;;14.50;99.90;;;;;;5094402;28;20643;-74
2022/06/03 04:45:17;;;;;;;2.20;1.97;;;14.50;99.90;;;;;;5094533;28;20570;-74
2022/06/03 04:47:58;;;;;;;2.83;2.00;;;14.50;99.90;;;;;;5092979;28;20652;-75
2022/06/03 04:50:28;;;;;;;3.67;2.97;;;14.40;99.90;;;;;;5092288;28;20613;-74
2022/06/03 04:53:32;;;;;;;2.87;2.40;;;14.50;99.90;;;;;;5093558;28;20683;-74
2022/06/03 04:56:37;;;;;;;3.17;2.97;;;14.40;99.90;;;;;;5094146;28;20597;-72
2022/06/03 04:59:34;;;;;;;28.60;26.30;;;14.50;99.90;;;;;;5094054;28;20645;-73
2022/06/03 05:02:24;;;;;;;18.60;17.03;;;14.50;99.90;;;;;;5094429;28;20573;-73
2022/06/03 05:05:24;;;;;;;29.10;26.10;;;14.70;99.90;;;;;;5094076;28;21019;-75
2022/06/03 05:08:00;;;;;;;30.23;27.53;;;14.80;99.90;;;;;;5094539;28;20730;-73
2022/06/03 05:10:41;;;;;;;13.60;7.40;;;14.90;99.90;;;;;;5095134;28;20673;-73
2022/06/03 05:13:35;;;;;;;3.00;2.73;;;15.00;99.90;;;;;;5095222;28;20578;-74
2022/06/03 05:16:35;;;;;;;3.07;2.80;;;15.30;99.90;;;;;;5094230;28;20944;-73
2022/06/03 05:19:02;;;;;;;5.20;2.70;;;15.40;99.90;;;;;;5093451;28;21117;-74
2022/06/03 05:21:53;;;;;;;5.73;2.70;;;15.50;99.90;;;;;;5094499;28;20608;-73
2022/06/03 05:24:20;;;;;;;4.43;2.20;;;15.40;99.90;;;;;;5093684;28;20670;-73
2022/06/03 05:27:15;;;;;;;4.70;2.60;;;15.40;99.90;;;;;;5093405;28;20607;-73
2022/06/03 05:30:19;;;;;;;9.40;2.60;;;15.50;99.90;;;;;;5086315;28;21272;-73
2022/06/03 05:33:07;;;;;;;2.57;2.47;;;15.70;99.90;;;;;;5097629;28;20609;-73
2022/06/03 05:35:38;;;;;;;5.13;2.60;;;15.70;99.90;;;;;;5096695;28;20621;-73
2022/06/03 05:38:29;;;;;;;3.20;2.37;;;16.00;99.90;;;;;;5096384;28;20579;-73
2022/06/03 05:42:23;;;;;;;3.20;2.40;;;16.20;99.90;;;;;;5097116;28;21155;-73
2022/06/03 05:44:41;;;;;;;4.53;2.63;;;16.30;99.90;;;;;;5097134;28;20977;-74
2022/06/03 05:47:15;;;;;;;3.05;2.00;;;16.40;99.90;;;;;;5097113;28;21112;-76
2022/06/03 05:50:05;;;;;;;3.80;2.10;;;16.60;99.90;;;;;;5105644;28;20183;-80
2022/06/03 05:52:42;;;;;;;6.10;2.37;;;16.70;99.90;;;;;;5106655;28;20585;-79
2022/06/03 05:55:18;;;;;;;2.33;2.07;;;16.80;99.90;;;;;;5107651;28;20641;-80
2022/06/03 05:58:04;;;;;;;7.30;2.50;;;16.90;99.90;;;;;;5111121;28;20756;-80
2022/06/03 06:00:43;;;;;;;5.23;2.30;;;17.00;99.90;;;;;;5099058;28;20667;-80
2022/06/03 06:03:17;;;;;;;2.80;2.00;;;16.90;99.90;;;;;;5106167;28;20562;-80
2022/06/03 06:06:04;;;;;;;3.43;2.40;;;17.20;99.90;;;;;;5101826;28;20584;-79
2022/06/03 06:08:51;;;;;;;2.30;1.87;;;17.40;99.90;;;;;;5104930;28;20580;-77
2022/06/03 06:11:20;;;;;;;8.00;2.00;;;17.20;99.90;;;;;;5101098;28;20648;-75
2022/06/03 06:13:56;;;;;;;2.43;2.23;;;17.30;99.90;;;;;;5098919;28;20601;-77
2022/06/03 06:16:32;;;;;;;3.97;1.93;;;17.50;99.90;;;;;;5102781;28;20615;-78
2022/06/03 06:19:33;;;;;;;5.57;2.63;;;17.60;99.90;;;;;;5098188;28;20569;-75
2022/06/03 06:22:09;;;;;;;3.07;2.00;;;17.70;99.90;;;;;;5100747;28;20584;-77
2022/06/03 06:24:35;;;;;;;2.90;2.23;;;17.70;99.90;;;;;;5108324;28;20562;-78
2022/06/03 06:27:30;;;;;;;3.60;2.10;;;17.60;99.90;;;;;;5103100;28;21002;-78
2022/06/03 06:30:25;;;;;;;1.87;1.70;;;17.70;99.90;;;;;;5103547;28;20715;-77
2022/06/03 06:33:00;;;;;;;2.57;2.07;;;17.50;99.90;;;;;;5105423;28;20609;-76
2022/06/03 06:35:50;;;;;;;2.90;2.20;;;17.60;99.90;;;;;;5099949;28;20580;-77
2022/06/03 06:38:37;;;;;;;3.73;2.00;;;17.60;99.90;;;;;;5080602;28;21036;-78
2022/06/03 06:41:35;;;;;;;4.40;2.23;;;17.90;99.90;;;;;;5099213;28;20621;-78
2022/06/03 06:44:29;;;;;;;2.47;1.87;;;18.00;99.90;;;;;;5100170;28;20729;-79
2022/06/03 06:47:24;;;;;;;4.03;2.27;;;18.20;99.90;;;;;;5100390;28;20613;-80
2022/06/03 06:49:50;;;;;;;2.50;2.30;;;18.30;99.90;;;;;;5100197;28;20613;-78
2022/06/03 06:52:31;;;;;;;5.13;2.20;;;18.30;99.90;;;;;;5102137;28;20685;-81
2022/06/03 06:55:24;;;;;;;3.43;2.43;;;18.50;99.90;;;;;;5102499;28;20620;-79
2022/06/03 06:58:04;;;;;;;2.50;2.37;;;18.80;99.90;;;;;;5100110;28;20632;-79
2022/06/03 07:00:32;;;;;;;4.80;2.87;;;18.80;99.90;;;;;;5095326;28;20983;-71
2022/06/03 07:03:05;;;;;;;10.50;3.23;;;19.20;99.90;;;;;;5093300;28;20630;-72
2022/06/03 07:05:56;;;;;;;2.50;2.30;;;19.30;99.90;;;;;;5095302;28;20922;-71
2022/06/03 07:08:38;;;;;;;3.87;2.90;;;19.40;99.90;;;;;;5095097;28;21123;-73
2022/06/03 07:11:24;;;;;;;3.80;2.20;;;19.50;99.90;;;;;;5095822;28;20608;-73
2022/06/03 07:13:55;;;;;;;4.20;2.57;;;19.70;99.90;;;;;;5095674;28;20573;-72
2022/06/03 07:20:00;;;;;;;5.00;2.80;;;19.70;99.90;;;;;;5095387;28;20641;-71
2022/06/03 07:22:55;;;;;;;3.30;1.83;;;19.60;99.90;;;;;;5094665;28;20609;-72
2022/06/03 07:25:27;;;;;;;4.40;2.30;;;19.80;99.90;;;;;;5094814;28;20613;-72
2022/06/03 07:28:13;;;;;;;13.27;3.90;;;19.90;99.90;;;;;;5095477;28;21078;-72
2022/06/03 07:30:54;;;;;;;4.50;2.90;;;19.80;99.90;;;;;;5095383;28;20568;-71
2022/06/03 07:33:30;;;;;;;2.80;2.63;;;20.20;99.90;;;;;;5095906;28;20935;-72
2022/06/03 07:36:39;;;;;;;6.53;2.47;;;20.20;99.90;;;;;;5095497;28;20612;-72
2022/06/03 07:39:26;;;;;;;6.67;2.57;;;20.50;99.90;;;;;;5085099;28;21218;-71
2022/06/03 07:42:16;;;;;;;6.13;2.80;;;20.50;99.90;;;;;;5095419;28;20581;-72
2022/06/03 07:44:54;;;;;;;3.57;3.27;;;20.20;99.90;;;;;;5093539;28;20679;-71
2022/06/03 07:47:23;;;;;;;5.23;2.10;;;20.00;99.90;;;;;;5093561;28;20665;-72
2022/06/03 07:49:58;;;;;;;4.83;2.87;;;19.90;99.90;;;;;;5094965;28;20605;-72
2022/06/03 07:52:43;;;;;;;3.23;2.80;;;20.10;99.90;;;;;;5095113;28;20610;-71
2022/06/03 07:55:16;;;;;;;2.90;2.10;;;20.20;99.90;;;;;;5093891;28;20620;-72
2022/06/03 07:57:52;;;;;;;3.43;2.30;;;20.40;99.90;;;;;;5094726;28;20590;-72
2022/06/03 08:00:22;;;;;;;2.60;2.40;;;20.50;99.90;;;;;;5093813;28;20660;-71
2022/06/03 08:03:19;;;;;;;8.23;2.83;;;20.80;99.90;;;;;;5094861;28;20605;-71
2022/06/03 08:05:50;;;;;;;3.93;2.30;;;20.70;99.90;;;;;;5090047;28;21214;-71
2022/06/03 08:11:12;;;;;;;2.67;2.43;;;20.90;99.90;;;;;;5094361;28;20593;-71
2022/06/03 08:13:39;;;;;;;3.70;2.50;;;21.20;99.90;;;;;;5094613;28;20586;-72
2022/06/03 08:16:27;;;;;;;4.30;2.47;;;21.40;99.90;;;;;;5093901;28;20612;-71
2022/06/03 08:19:01;;;;;;;5.10;3.37;;;21.70;99.90;;;;;;5094359;28;20622;-72
2022/06/03 08:21:33;;;;;;;3.37;2.70;;;21.40;99.90;;;;;;5092617;28;20735;-72
2022/06/03 08:24:02;;;;;;;19.27;3.00;;;21.30;99.90;;;;;;5094782;28;20581;-72
2022/06/03 08:26:30;;;;;;;10.53;8.07;;;21.10;99.90;;;;;;5092397;28;21193;-72
2022/06/03 08:29:07;;;;;;;5.00;4.60;;;21.10;99.90;;;;;;5093977;28;20602;-72
2022/06/03 08:31:35;;;;;;;4.00;2.77;;;21.50;99.90;;;;;;5093771;28;20650;-71
2022/06/03 08:34:04;;;;;;;5.83;2.90;;;21.80;99.90;;;;;;5093808;28;20605;-73
2022/06/03 08:36:37;;;;;;;3.90;3.47;;;22.00;99.90;;;;;;5092689;28;20628;-72
2022/06/03 08:39:17;;;;;;;4.10;3.17;;;22.20;99.90;;;;;;5094115;28;20934;-70
2022/06/03 08:42:09;;;;;;;4.23;3.10;;;22.30;99.90;;;;;;5094510;28;20632;-72
2022/06/03 08:44:45;;;;;;;5.07;2.83;;;22.30;99.90;;;;;;5092974;28;20573;-71
2022/06/03 08:47:42;;;;;;;8.40;3.30;;;22.50;99.90;;;;;;5092846;28;21007;-71
2022/06/03 08:50:26;;;;;;;3.93;3.30;;;22.30;99.90;;;;;;5093251;28;20578;-73
2022/06/03 08:52:57;;;;;;;2.87;2.70;;;22.50;99.90;;;;;;5093253;28;20573;-70
2022/06/03 08:55:40;;;;;;;4.23;2.30;;;22.70;99.90;;;;;;5094016;28;20578;-72
2022/06/03 08:58:22;;;;;;;6.07;3.30;;;22.90;99.90;;;;;;5093498;28;20994;-71
2022/06/03 09:01:13;;;;;;;2.73;2.53;;;22.80;99.90;;;;;;5091857;28;21012;-72
2022/06/03 09:04:00;;;;;;;5.33;3.37;;;22.90;99.90;;;;;;5093600;28;20625;-71
2022/06/03 09:06:50;;;;;;;3.83;3.03;;;23.00;99.90;;;;;;5096456;28;20585;-72
2022/06/03 09:09:30;;;;;;;5.20;3.30;;;23.30;99.90;;;;;;5097455;28;20628;-71
2022/06/03 09:12:03;;;;;;;4.47;2.47;;;23.40;99.90;;;;;;5095457;28;20673;-71
2022/06/03 09:14:32;;;;;;;3.10;2.90;;;23.40;99.90;;;;;;5097449;28;20700;-71
2022/06/03 09:17:23;;;;;;;2.70;2.50;;;23.60;99.90;;;;;;5097975;28;20616;-71
2022/06/03 09:19:53;;;;;;;3.40;3.10;;;23.50;99.90;;;;;;5096943;28;20633;-71
2022/06/03 09:22:25;;;;;;;10.03;3.33;;;23.30;99.90;;;;;;5097451;28;20716;-71
2022/06/03 09:24:56;;;;;;;5.37;2.80;;;23.60;99.90;;;;;;5096964;28;20569;-71
2022/06/03 09:27:23;;;;;;;4.83;3.13;;;23.80;99.90;;;;;;5094891;28;20621;-70
2022/06/03 09:29:54;;;;;;;7.60;3.40;;;24.20;99.90;;;;;;5096936;28;20613;-71
2022/06/03 09:32:23;;;;;;;5.33;3.50;;;24.20;99.90;;;;;;5096715;28;20613;-72
2022/06/03 09:34:54;;;;;;;4.13;3.00;;;24.10;99.90;;;;;;5096999;28;20605;-72
2022/06/03 09:37:26;;;;;;;4.40;2.93;;;24.70;99.90;;;;;;5097826;28;20624;-72
2022/06/03 09:39:54;;;;;;;8.13;3.30;;;25.00;99.90;;;;;;5098024;28;20578;-71
2022/06/03 09:42:22;;;;;;;7.23;3.13;;;24.70;99.90;;;;;;5095458;28;20677;-72
2022/06/03 09:44:51;;;;;;;4.13;3.20;;;24.90;99.90;;;;;;5097854;28;20610;-72
2022/06/03 09:47:21;;;;;;;3.13;2.93;;;25.40;99.90;;;;;;5097271;28;20657;-73
2022/06/03 09:49:51;;;;;;;6.07;2.93;;;25.80;99.90;;;;;;5096625;28;20614;-73
2022/06/03 09:52:25;;;;;;;4.73;3.03;;;25.40;99.90;;;;;;5096813;28;20728;-72
2022/06/03 09:54:54;;;;;;;11.07;3.30;;;25.50;99.90;;;;;;5096479;28;20580;-73
2022/06/03 09:57:33;;;;;;;6.47;3.30;;;25.70;99.90;;;;;;5097244;28;20616;-73
2022/06/03 10:00:17;;;;;;;4.70;3.20;;;25.90;99.90;;;;;;5097106;28;20982;-73
2022/06/03 10:02:44;;;;;;;5.33;3.60;;;25.70;99.90;;;;;;5096159;28;20617;-72
2022/06/03 10:05:16;;;;;;;3.80;3.43;;;26.10;99.90;;;;;;5096720;28;20620;-72
2022/06/03 10:07:44;;;;;;;3.40;3.10;;;26.50;99.90;;;;;;5096146;28;20608;-73
2022/06/03 10:13:05;;;;;;;5.43;3.57;;;26.60;99.90;;;;;;5096048;28;20589;-72
2022/06/03 10:15:38;;;;;;;5.40;3.63;;;26.40;99.90;;;;;;5096621;28;20612;-73
2022/06/03 10:18:19;;;;;;;3.53;3.20;;;27.00;99.90;;;;;;5095646;28;20585;-72
2022/06/03 10:20:47;;;;;;;5.23;3.50;;;27.50;99.90;;;;;;5096245;28;21037;-73
2022/06/03 10:23:14;;;;;;;7.93;3.97;;;27.60;99.90;;;;;;5096604;28;20613;-73
2022/06/03 10:25:46;;;;;;;6.40;3.60;;;27.40;99.90;;;;;;5096386;28;20663;-72
2022/06/03 10:28:15;;;;;;;3.77;3.47;;;27.60;99.90;;;;;;5096004;28;20581;-72
2022/06/03 10:30:43;;;;;;;5.33;3.40;;;27.40;99.90;;;;;;5094145;28;21293;-72
2022/06/03 10:33:16;;;;;;;4.37;3.13;;;27.40;99.90;;;;;;5095687;28;20629;-72
2022/06/03 10:35:43;;;;;;;5.23;3.53;;;26.70;99.90;;;;;;5096301;28;20617;-72
2022/06/03 10:38:10;;;;;;;3.90;3.60;;;26.60;99.90;;;;;;5096027;28;20621;-72
2022/06/03 10:40:39;;;;;;;6.33;3.90;;;27.00;99.90;;;;;;5095809;28;20653;-72
2022/06/03 10:43:06;;;;;;;7.20;3.43;;;26.80;99.90;;;;;;5095220;28;20602;-72
2022/06/03 10:45:36;;;;;;;6.50;3.50;;;27.00;99.90;;;;;;5095295;28;20955;-72
2022/06/03 10:48:29;;;;;;;4.70;3.90;;;26.70;99.90;;;;;;5094628;28;21036;-72
2022/06/03 11:02:36;;;;;;;5.60;3.50;;;27.10;99.90;;;;;;5094988;28;20622;-72
2022/06/03 11:05:21;;;;;;;10.77;3.77;;;27.50;99.90;;;;;;5094839;28;20628;-71
2022/06/03 11:07:56;;;;;;;5.50;3.43;;;27.60;99.90;;;;;;5094511;28;20570;-71
2022/06/03 11:10:29;;;;;;;5.63;3.67;;;27.50;99.90;;;;;;5095094;28;20647;-71
2022/06/03 11:13:00;;;;;;;3.50;3.20;;;28.10;99.90;;;;;;5094193;28;20620;-71
2022/06/03 11:15:36;;;;;;;7.57;7.10;;;28.50;99.90;;;;;;5093608;28;21152;-71
2022/06/03 11:18:32;;;;;;;10.07;9.30;;;28.60;99.90;;;;;;5094816;28;20561;-71
2022/06/03 11:21:29;;;;;;;6.50;6.00;;;28.40;99.90;;;;;;5090757;28;21084;-72
2022/06/03 11:24:00;;;;;;;5.10;4.40;;;28.00;99.90;;;;;;5094521;28;20605;-72
2022/06/03 11:26:34;;;;;;;4.40;4.00;;;28.00;99.90;;;;;;5095064;28;20573;-72
2022/06/03 11:29:08;;;;;;;3.77;3.47;;;28.30;99.90;;;;;;5094562;28;20606;-72
2022/06/03 11:31:41;;;;;;;3.80;3.47;;;28.80;99.90;;;;;;5094596;28;20589;-73
2022/06/03 11:35:00;;;;;;;5.10;3.63;;;28.90;99.90;;;;;;5094921;28;20919;-74
2022/06/03 11:37:34;;;;;;;4.83;3.60;;;29.20;99.90;;;;;;5070835;28;20633;-74
2022/06/03 11:40:04;;;;;;;4.33;3.93;;;29.10;99.90;;;;;;5094155;28;20987;-74
2022/06/03 11:42:36;;;;;;;5.60;3.93;;;28.40;99.90;;;;;;5095409;28;20606;-74
2022/06/03 11:45:21;;;;;;;4.13;3.40;;;28.20;99.90;;;;;;5094696;28;20770;-73
2022/06/03 11:47:49;;;;;;;3.57;3.37;;;27.90;99.90;;;;;;5092861;28;20702;-73
2022/06/03 11:50:19;;;;;;;13.43;4.07;;;28.20;99.90;;;;;;5094137;28;20642;-73
2022/06/03 11:52:48;;;;;;;13.83;4.43;;;28.40;99.90;;;;;;5093830;28;20606;-74
2022/06/03 11:55:17;;;;;;;4.37;3.97;;;28.70;99.90;;;;;;5094729;28;20685;-74
2022/06/03 11:57:58;;;;;;;4.47;3.70;;;29.20;99.90;;;;;;5094308;28;20618;-74
2022/06/03 12:00:29;;;;;;;5.13;3.63;;;29.40;99.90;;;;;;5093852;28;21031;-73
2022/06/03 12:03:27;;;;;;;8.87;4.40;;;29.30;99.90;;;;;;5093956;28;20657;-73
2022/06/03 12:06:02;;;;;;;7.73;4.13;;;28.60;99.90;;;;;;5094019;28;20954;-73
2022/06/03 12:08:59;;;;;;;5.47;4.00;;;28.90;99.90;;;;;;5094441;28;20568;-73
2022/06/03 12:14:28;;;;;;;4.03;3.63;;;28.60;99.90;;;;;;5094255;28;21095;-73
2022/06/03 12:17:19;;;;;;;3.43;3.17;;;28.60;99.90;;;;;;5092323;28;20637;-74
2022/06/03 12:19:48;;;;;;;9.80;3.63;;;28.70;99.90;;;;;;5093817;28;20617;-73
2022/06/03 12:22:29;;;;;;;4.23;3.83;;;29.00;99.90;;;;;;5094067;28;20659;-74
2022/06/03 12:24:57;;;;;;;4.03;3.57;;;29.10;99.90;;;;;;5094821;28;20573;-74
2022/06/03 12:27:35;;;;;;;7.90;6.40;;;28.60;99.90;;;;;;5094200;28;21177;-73
2022/06/03 12:30:14;;;;;;;4.93;4.53;;;28.10;99.90;;;;;;5094156;28;20566;-73
2022/06/03 12:32:57;;;;;;;4.67;4.37;;;27.80;99.90;;;;;;5094173;28;20624;-74
2022/06/03 12:35:41;;;;;;;4.50;3.93;;;27.60;99.90;;;;;;5094243;28;20570;-74
2022/06/03 12:38:20;;;;;;;7.57;4.40;;;27.70;99.90;;;;;;5092664;28;20994;-73
2022/06/03 12:40:52;;;;;;;4.60;4.30;;;27.60;99.90;;;;;;5092429;28;21226;-74
2022/06/03 12:43:46;;;;;;;4.13;3.83;;;27.20;99.90;;;;;;5093642;28;20917;-74
2022/06/03 12:46:34;;;;;;;4.13;3.83;;;26.70;99.90;;;;;;5093382;28;20646;-74
2022/06/03 12:49:01;;;;;;;4.57;4.17;;;26.50;99.90;;;;;;5093179;28;20648;-74
2022/06/03 12:51:30;;;;;;;9.47;3.90;;;26.60;99.90;;;;;;5093258;28;21160;-73
2022/06/03 12:54:15;;;;;;;3.63;3.43;;;26.60;99.90;;;;;;5094087;28;20617;-74
2022/06/03 12:56:51;;;;;;;4.13;3.80;;;26.60;99.90;;;;;;5093582;28;20588;-73
2022/06/03 12:59:29;;;;;;;7.40;4.00;;;27.10;99.90;;;;;;5093611;28;20573;-73
2022/06/03 13:02:15;;;;;;;7.30;4.73;;;27.40;99.90;;;;;;5093862;28;20633;-73
2022/06/03 13:05:10;;;;;;;4.87;4.47;;;26.80;99.90;;;;;;5093756;28;20601;-72
2022/06/03 13:07:55;;;;;;;7.53;3.53;;;27.10;99.90;;;;;;5093296;28;20625;-72
2022/06/03 13:10:26;;;;;;;4.03;3.60;;;26.90;99.90;;;;;;5094089;28;20573;-73
2022/06/03 13:12:55;;;;;;;4.97;3.83;;;27.40;99.90;;;;;;5092004;28;20637;-74
2022/06/03 13:15:21;;;;;;;4.70;3.80;;;27.60;99.90;;;;;;5094272;28;20658;-72
2022/06/03 13:20:37;;;;;;;5.70;3.90;;;27.40;99.90;;;;;;5094613;28;20589;-73
2022/06/03 13:23:19;;;;;;;5.93;3.70;;;27.40;99.90;;;;;;5091942;28;20620;-73
2022/06/03 13:25:47;;;;;;;4.50;4.20;;;27.30;99.90;;;;;;5092967;28;20605;-73
2022/06/03 13:28:36;;;;;;;4.40;4.00;;;27.10;99.90;;;;;;5093037;28;20609;-73
2022/06/03 13:31:40;;;;;;;6.77;3.90;;;27.30;99.90;;;;;;5090901;28;20610;-73
2022/06/03 13:34:10;;;;;;;5.60;4.60;;;27.30;99.90;;;;;;5092974;28;20685;-72
2022/06/03 13:36:51;;;;;;;5.40;4.00;;;27.10;99.90;;;;;;5092930;28;20602;-73
2022/06/03 13:39:23;;;;;;;4.53;4.23;;;26.90;99.90;;;;;;5092570;28;21134;-72
2022/06/03 13:44:46;;;;;;;4.47;4.00;;;27.10;99.90;;;;;;5092347;28;20581;-72
2022/06/03 13:47:20;;;;;;;4.40;3.90;;;26.90;99.90;;;;;;5092209;28;20661;-72
2022/06/03 13:49:55;;;;;;;4.30;3.90;;;27.10;99.90;;;;;;5092337;28;21218;-73
2022/06/03 13:52:25;;;;;;;9.03;4.10;;;26.40;99.90;;;;;;5095683;28;20581;-71
2022/06/03 13:55:14;;;;;;;5.33;4.50;;;26.30;99.90;;;;;;5096379;28;20582;-72
2022/06/03 13:57:48;;;;;;;5.70;4.27;;;26.40;99.90;;;;;;5084511;28;20643;-73
2022/06/03 14:00:22;;;;;;;4.40;3.83;;;26.30;99.90;;;;;;5096331;28;20589;-73
2022/06/03 14:03:11;;;;;;;5.37;4.30;;;26.10;99.90;;;;;;5096908;28;20678;-73
2022/06/03 14:05:42;;;;;;;5.77;4.30;;;25.50;99.90;;;;;;5096130;28;20956;-73
2022/06/03 14:08:39;;;;;;;7.00;3.80;;;25.70;99.90;;;;;;5096197;28;20632;-72
2022/06/03 14:11:16;;;;;;;3.90;3.53;;;25.90;99.90;;;;;;5096510;28;20683;-73
2022/06/03 14:13:46;;;;;;;5.27;3.93;;;26.10;99.90;;;;;;5096573;28;20928;-73
2022/06/03 14:16:23;;;;;;;4.50;4.10;;;26.00;99.90;;;;;;5097294;28;20608;-73
2022/06/03 14:19:41;;;;;;;4.03;3.70;;;25.90;99.90;;;;;;5096475;28;20573;-73
2022/06/03 14:22:24;;;;;;;5.37;4.40;;;25.70;99.90;;;;;;5095885;28;20661;-73
2022/06/03 14:25:10;;;;;;;3.77;3.57;;;26.00;99.90;;;;;;5097054;28;20562;-73
2022/06/03 14:27:42;;;;;;;4.63;4.17;;;26.10;99.90;;;;;;5096836;28;20944;-73
2022/06/03 14:30:46;;;;;;;4.27;3.90;;;26.20;99.90;;;;;;5096921;28;20601;-73
2022/06/03 14:33:15;;;;;;;4.70;4.33;;;26.00;99.90;;;;;;5096890;28;20617;-73